sensor_id;sensor_type;location;lat;lon;timestamp;P1;durP1;ratioP1;P2;durP2;ratioP2
20727;SDS011;10525;50.154;8.198;2023-03-01T00:02:15;21.50;;;7.80;;
20727;SDS011;10525;50.154;8.198;2023-03-01T00:04:42;17.97;;;8.40;;
20727;SDS011;10525;50.154;8.198;2023-03-01T00:07:08;16.47;;;8.70;;
20727;SDS011;10525;50.154;8.198;2023-03-01T00:09:35;19.80;;;8.97;;
20727;SDS011;10525;50.154;8.198;2023-03-01T00:12:03;14.67;;;8.43;;
20727;SDS011;10525;50.154;8.198;2023-03-01T00:14:30;15.07;;;7.67;;
20727;SDS011;10525;50.154;8.198;2023-03-01T00:16:58;17.10;;;8.20;;
20727;SDS011;10525;50.154;8.198;2023-03-01T00:19:25;13.47;;;6.90;;
20727;SDS011;10525;50.154;8.198;2023-03-01T00:21:51;15.37;;;7.50;;
20727;SDS011;10525;50.154;8.198;2023-03-01T00:24:18;19.53;;;9.23;;
20727;SDS011;10525;50.154;8.198;2023-03-01T00:26:44;20.93;;;9.00;;
20727;SDS011;10525;50.154;8.198;2023-03-01T00:29:11;20.73;;;9.57;;
20727;SDS011;10525;50.154;8.198;2023-03-01T00:31:38;20.50;;;8.83;;
20727;SDS011;10525;50.154;8.198;2023-03-01T00:34:06;15.23;;;8.40;;
20727;SDS011;10525;50.154;8.198;2023-03-01T00:36:34;16.10;;;7.23;;
20727;SDS011;10525;50.154;8.198;2023-03-01T00:39:02;15.20;;;7.33;;
20727;SDS011;10525;50.154;8.198;2023-03-01T00:41:30;22.23;;;9.00;;
20727;SDS011;10525;50.154;8.198;2023-03-01T00:43:58;18.37;;;9.00;;
20727;SDS011;10525;50.154;8.198;2023-03-01T00:46:25;19.50;;;9.07;;
20727;SDS011;10525;50.154;8.198;2023-03-01T00:48:52;21.10;;;8.90;;
20727;SDS011;10525;50.154;8.198;2023-03-01T00:51:21;17.80;;;8.30;;
20727;SDS011;10525;50.154;8.198;2023-03-01T00:53:49;19.27;;;8.60;;
20727;SDS011;10525;50.154;8.198;2023-03-01T00:56:17;16.60;;;8.07;;
20727;SDS011;10525;50.154;8.198;2023-03-01T00:58:44;17.40;;;9.27;;
20727;SDS011;10525;50.154;8.198;2023-03-01T01:01:12;18.00;;;8.27;;
20727;SDS011;10525;50.154;8.198;2023-03-01T01:03:43;16.77;;;8.53;;
20727;SDS011;10525;50.154;8.198;2023-03-01T01:06:14;19.33;;;7.90;;
20727;SDS011;10525;50.154;8.198;2023-03-01T01:08:43;23.67;;;8.57;;
20727;SDS011;10525;50.154;8.198;2023-03-01T01:11:10;17.40;;;8.40;;
20727;SDS011;10525;50.154;8.198;2023-03-01T01:13:37;17.93;;;8.33;;
20727;SDS011;10525;50.154;8.198;2023-03-01T01:16:04;16.40;;;8.33;;
20727;SDS011;10525;50.154;8.198;2023-03-01T01:18:32;20.27;;;8.27;;
20727;SDS011;10525;50.154;8.198;2023-03-01T01:21:02;19.77;;;9.50;;
20727;SDS011;10525;50.154;8.198;2023-03-01T01:23:29;21.57;;;8.77;;
20727;SDS011;10525;50.154;8.198;2023-03-01T01:25:57;19.77;;;8.73;;
20727;SDS011;10525;50.154;8.198;2023-03-01T01:28:29;15.77;;;8.30;;
20727;SDS011;10525;50.154;8.198;2023-03-01T01:30:56;16.90;;;7.90;;
20727;SDS011;10525;50.154;8.198;2023-03-01T01:33:23;24.57;;;9.90;;
20727;SDS011;10525;50.154;8.198;2023-03-01T01:35:49;20.77;;;8.90;;
20727;SDS011;10525;50.154;8.198;2023-03-01T01:38:16;15.87;;;8.20;;
20727;SDS011;10525;50.154;8.198;2023-03-01T01:40:43;19.33;;;8.37;;
20727;SDS011;10525;50.154;8.198;2023-03-01T01:43:13;22.73;;;9.43;;
20727;SDS011;10525;50.154;8.198;2023-03-01T01:45:45;18.10;;;9.03;;
20727;SDS011;10525;50.154;8.198;2023-03-01T01:48:12;15.50;;;8.57;;
20727;SDS011;10525;50.154;8.198;2023-03-01T01:50:42;15.53;;;8.33;;
20727;SDS011;10525;50.154;8.198;2023-03-01T01:53:10;18.00;;;8.50;;
20727;SDS011;10525;50.154;8.198;2023-03-01T01:55:40;25.23;;;10.10;;
20727;SDS011;10525;50.154;8.198;2023-03-01T01:58:09;17.27;;;9.17;;
20727;SDS011;10525;50.154;8.198;2023-03-01T02:00:40;17.27;;;9.40;;
20727;SDS011;10525;50.154;8.198;2023-03-01T02:03:08;21.87;;;9.73;;
20727;SDS011;10525;50.154;8.198;2023-03-01T02:05:38;17.23;;;8.43;;
20727;SDS011;10525;50.154;8.198;2023-03-01T02:08:11;25.07;;;9.73;;
20727;SDS011;10525;50.154;8.198;2023-03-01T02:10:39;20.47;;;8.20;;
20727;SDS011;10525;50.154;8.198;2023-03-01T02:13:07;17.17;;;9.10;;
20727;SDS011;10525;50.154;8.198;2023-03-01T02:15:34;21.87;;;9.23;;
20727;SDS011;10525;50.154;8.198;2023-03-01T02:18:04;16.73;;;9.00;;
20727;SDS011;10525;50.154;8.198;2023-03-01T02:20:33;16.67;;;8.47;;
20727;SDS011;10525;50.154;8.198;2023-03-01T02:23:06;21.50;;;8.80;;
20727;SDS011;10525;50.154;8.198;2023-03-01T02:25:36;23.63;;;9.20;;
20727;SDS011;10525;50.154;8.198;2023-03-01T02:28:18;22.63;;;8.83;;
20727;SDS011;10525;50.154;8.198;2023-03-01T02:30:48;20.73;;;9.07;;
20727;SDS011;10525;50.154;8.198;2023-03-01T02:33:35;17.97;;;9.17;;
20727;SDS011;10525;50.154;8.198;2023-03-01T02:36:03;20.20;;;9.27;;
20727;SDS011;10525;50.154;8.198;2023-03-01T02:38:33;16.77;;;8.93;;
20727;SDS011;10525;50.154;8.198;2023-03-01T02:41:00;20.20;;;9.20;;
20727;SDS011;10525;50.154;8.198;2023-03-01T02:43:30;23.00;;;10.27;;
20727;SDS011;10525;50.154;8.198;2023-03-01T02:46:03;22.73;;;10.37;;
20727;SDS011;10525;50.154;8.198;2023-03-01T02:48:39;20.70;;;10.03;;
20727;SDS011;10525;50.154;8.198;2023-03-01T02:51:09;17.63;;;8.53;;
20727;SDS011;10525;50.154;8.198;2023-03-01T02:53:53;18.97;;;8.47;;
20727;SDS011;10525;50.154;8.198;2023-03-01T02:56:25;19.50;;;8.63;;
20727;SDS011;10525;50.154;8.198;2023-03-01T02:58:53;15.17;;;8.07;;
20727;SDS011;10525;50.154;8.198;2023-03-01T03:01:25;21.80;;;9.67;;
20727;SDS011;10525;50.154;8.198;2023-03-01T03:04:03;18.27;;;9.80;;
20727;SDS011;10525;50.154;8.198;2023-03-01T03:06:30;23.50;;;10.07;;
20727;SDS011;10525;50.154;8.198;2023-03-01T03:08:57;20.77;;;9.20;;
20727;SDS011;10525;50.154;8.198;2023-03-01T03:11:24;18.70;;;8.60;;
20727;SDS011;10525;50.154;8.198;2023-03-01T03:13:51;21.17;;;8.87;;
20727;SDS011;10525;50.154;8.198;2023-03-01T03:16:19;26.83;;;9.90;;
20727;SDS011;10525;50.154;8.198;2023-03-01T03:18:46;23.27;;;9.77;;
20727;SDS011;10525;50.154;8.198;2023-03-01T03:21:15;24.33;;;9.07;;
20727;SDS011;10525;50.154;8.198;2023-03-01T03:23:42;26.03;;;9.77;;
20727;SDS011;10525;50.154;8.198;2023-03-01T03:26:09;21.70;;;9.17;;
20727;SDS011;10525;50.154;8.198;2023-03-01T03:28:38;23.60;;;10.70;;
20727;SDS011;10525;50.154;8.198;2023-03-01T03:31:05;23.10;;;10.13;;
20727;SDS011;10525;50.154;8.198;2023-03-01T03:33:34;20.83;;;10.57;;
20727;SDS011;10525;50.154;8.198;2023-03-01T03:36:01;17.23;;;8.70;;
20727;SDS011;10525;50.154;8.198;2023-03-01T03:38:28;28.57;;;10.47;;
20727;SDS011;10525;50.154;8.198;2023-03-01T03:40:59;20.87;;;10.40;;
20727;SDS011;10525;50.154;8.198;2023-03-01T03:43:28;21.60;;;10.47;;
20727;SDS011;10525;50.154;8.198;2023-03-01T03:45:55;18.90;;;9.17;;
20727;SDS011;10525;50.154;8.198;2023-03-01T03:48:23;23.07;;;10.00;;
20727;SDS011;10525;50.154;8.198;2023-03-01T03:50:52;24.30;;;10.27;;
20727;SDS011;10525;50.154;8.198;2023-03-01T03:53:20;22.57;;;9.37;;
20727;SDS011;10525;50.154;8.198;2023-03-01T03:55:47;26.30;;;10.83;;
20727;SDS011;10525;50.154;8.198;2023-03-01T03:58:16;26.50;;;11.13;;
20727;SDS011;10525;50.154;8.198;2023-03-01T04:00:44;27.90;;;11.17;;
20727;SDS011;10525;50.154;8.198;2023-03-01T04:03:13;24.30;;;10.50;;
20727;SDS011;10525;50.154;8.198;2023-03-01T04:05:41;28.70;;;10.90;;
20727;SDS011;10525;50.154;8.198;2023-03-01T04:08:09;31.57;;;12.47;;
20727;SDS011;10525;50.154;8.198;2023-03-01T04:10:37;26.23;;;11.23;;
20727;SDS011;10525;50.154;8.198;2023-03-01T04:13:05;25.67;;;12.27;;
20727;SDS011;10525;50.154;8.198;2023-03-01T04:15:32;28.47;;;11.80;;
20727;SDS011;10525;50.154;8.198;2023-03-01T04:17:59;29.13;;;11.00;;
20727;SDS011;10525;50.154;8.198;2023-03-01T04:20:27;35.53;;;11.60;;
20727;SDS011;10525;50.154;8.198;2023-03-01T04:22:59;26.33;;;11.43;;
20727;SDS011;10525;50.154;8.198;2023-03-01T04:25:36;24.43;;;10.73;;
20727;SDS011;10525;50.154;8.198;2023-03-01T04:28:04;30.60;;;12.30;;
20727;SDS011;10525;50.154;8.198;2023-03-01T04:30:30;27.57;;;12.00;;
20727;SDS011;10525;50.154;8.198;2023-03-01T04:33:00;25.60;;;12.47;;
20727;SDS011;10525;50.154;8.198;2023-03-01T04:35:27;30.17;;;11.87;;
20727;SDS011;10525;50.154;8.198;2023-03-01T04:37:54;27.27;;;11.67;;
20727;SDS011;10525;50.154;8.198;2023-03-01T04:40:21;24.17;;;11.13;;
20727;SDS011;10525;50.154;8.198;2023-03-01T04:42:49;29.27;;;12.10;;
20727;SDS011;10525;50.154;8.198;2023-03-01T04:45:16;24.83;;;10.80;;
20727;SDS011;10525;50.154;8.198;2023-03-01T04:47:43;37.27;;;11.77;;
20727;SDS011;10525;50.154;8.198;2023-03-01T04:50:11;27.03;;;11.83;;
20727;SDS011;10525;50.154;8.198;2023-03-01T04:52:40;30.10;;;11.17;;
20727;SDS011;10525;50.154;8.198;2023-03-01T04:55:07;25.70;;;10.60;;
20727;SDS011;10525;50.154;8.198;2023-03-01T04:57:35;28.40;;;11.77;;
20727;SDS011;10525;50.154;8.198;2023-03-01T05:00:04;25.73;;;10.43;;
20727;SDS011;10525;50.154;8.198;2023-03-01T05:02:45;29.63;;;11.73;;
20727;SDS011;10525;50.154;8.198;2023-03-01T05:05:13;28.53;;;12.03;;
20727;SDS011;10525;50.154;8.198;2023-03-01T05:07:40;24.03;;;10.47;;
20727;SDS011;10525;50.154;8.198;2023-03-01T05:10:07;30.90;;;11.67;;
20727;SDS011;10525;50.154;8.198;2023-03-01T05:12:34;29.00;;;12.00;;
20727;SDS011;10525;50.154;8.198;2023-03-01T05:15:04;34.37;;;12.20;;
20727;SDS011;10525;50.154;8.198;2023-03-01T05:17:32;31.37;;;12.40;;
20727;SDS011;10525;50.154;8.198;2023-03-01T05:19:58;36.40;;;12.20;;
20727;SDS011;10525;50.154;8.198;2023-03-01T05:22:26;34.40;;;12.70;;
20727;SDS011;10525;50.154;8.198;2023-03-01T05:24:53;29.63;;;12.10;;
20727;SDS011;10525;50.154;8.198;2023-03-01T05:27:20;29.50;;;12.13;;
20727;SDS011;10525;50.154;8.198;2023-03-01T05:29:47;34.97;;;12.20;;
20727;SDS011;10525;50.154;8.198;2023-03-01T05:32:15;29.77;;;11.43;;
20727;SDS011;10525;50.154;8.198;2023-03-01T05:34:42;31.47;;;11.93;;
20727;SDS011;10525;50.154;8.198;2023-03-01T05:37:09;30.90;;;11.23;;
20727;SDS011;10525;50.154;8.198;2023-03-01T05:39:35;29.03;;;11.30;;
20727;SDS011;10525;50.154;8.198;2023-03-01T05:42:02;27.63;;;12.10;;
20727;SDS011;10525;50.154;8.198;2023-03-01T05:44:29;26.33;;;11.57;;
20727;SDS011;10525;50.154;8.198;2023-03-01T05:46:56;30.97;;;12.27;;
20727;SDS011;10525;50.154;8.198;2023-03-01T05:49:25;27.93;;;12.50;;
20727;SDS011;10525;50.154;8.198;2023-03-01T05:51:52;32.47;;;11.53;;
20727;SDS011;10525;50.154;8.198;2023-03-01T05:54:19;32.33;;;13.10;;
20727;SDS011;10525;50.154;8.198;2023-03-01T05:56:46;35.07;;;12.00;;
20727;SDS011;10525;50.154;8.198;2023-03-01T05:59:13;32.07;;;12.37;;
20727;SDS011;10525;50.154;8.198;2023-03-01T06:01:41;30.93;;;11.73;;
20727;SDS011;10525;50.154;8.198;2023-03-01T06:04:08;26.33;;;12.47;;
20727;SDS011;10525;50.154;8.198;2023-03-01T06:06:36;25.10;;;11.93;;
20727;SDS011;10525;50.154;8.198;2023-03-01T06:09:03;23.73;;;11.27;;
20727;SDS011;10525;50.154;8.198;2023-03-01T06:11:33;32.70;;;11.67;;
20727;SDS011;10525;50.154;8.198;2023-03-01T06:13:59;29.67;;;12.03;;
20727;SDS011;10525;50.154;8.198;2023-03-01T06:16:26;31.97;;;11.97;;
20727;SDS011;10525;50.154;8.198;2023-03-01T06:18:53;27.37;;;11.30;;
20727;SDS011;10525;50.154;8.198;2023-03-01T06:21:19;24.63;;;11.43;;
20727;SDS011;10525;50.154;8.198;2023-03-01T06:23:47;25.03;;;11.50;;
20727;SDS011;10525;50.154;8.198;2023-03-01T06:26:14;27.87;;;11.17;;
20727;SDS011;10525;50.154;8.198;2023-03-01T06:28:41;32.63;;;11.83;;
20727;SDS011;10525;50.154;8.198;2023-03-01T06:31:10;23.97;;;11.40;;
20727;SDS011;10525;50.154;8.198;2023-03-01T06:33:37;29.47;;;11.47;;
20727;SDS011;10525;50.154;8.198;2023-03-01T06:36:04;26.93;;;10.97;;
20727;SDS011;10525;50.154;8.198;2023-03-01T06:38:32;33.17;;;12.57;;
20727;SDS011;10525;50.154;8.198;2023-03-01T06:41:00;29.70;;;12.13;;
20727;SDS011;10525;50.154;8.198;2023-03-01T06:43:26;27.37;;;12.00;;
20727;SDS011;10525;50.154;8.198;2023-03-01T06:45:53;27.90;;;11.93;;
20727;SDS011;10525;50.154;8.198;2023-03-01T06:48:20;33.93;;;13.43;;
20727;SDS011;10525;50.154;8.198;2023-03-01T06:50:46;39.33;;;13.47;;
20727;SDS011;10525;50.154;8.198;2023-03-01T06:53:13;34.00;;;13.20;;
20727;SDS011;10525;50.154;8.198;2023-03-01T06:55:40;33.63;;;13.10;;
20727;SDS011;10525;50.154;8.198;2023-03-01T06:58:08;31.77;;;13.57;;
20727;SDS011;10525;50.154;8.198;2023-03-01T07:00:35;26.47;;;11.33;;
20727;SDS011;10525;50.154;8.198;2023-03-01T07:03:02;33.57;;;12.17;;
20727;SDS011;10525;50.154;8.198;2023-03-01T07:05:29;31.30;;;12.10;;
20727;SDS011;10525;50.154;8.198;2023-03-01T07:07:55;32.93;;;11.87;;
20727;SDS011;10525;50.154;8.198;2023-03-01T07:10:22;36.03;;;13.23;;
20727;SDS011;10525;50.154;8.198;2023-03-01T07:12:49;28.47;;;12.50;;
20727;SDS011;10525;50.154;8.198;2023-03-01T07:15:17;27.13;;;12.43;;
20727;SDS011;10525;50.154;8.198;2023-03-01T07:17:44;23.53;;;12.00;;
20727;SDS011;10525;50.154;8.198;2023-03-01T07:20:12;30.07;;;12.07;;
20727;SDS011;10525;50.154;8.198;2023-03-01T07:22:40;30.10;;;11.90;;
20727;SDS011;10525;50.154;8.198;2023-03-01T07:25:08;28.10;;;12.43;;
20727;SDS011;10525;50.154;8.198;2023-03-01T07:27:35;26.73;;;11.23;;
20727;SDS011;10525;50.154;8.198;2023-03-01T07:30:02;31.87;;;11.87;;
20727;SDS011;10525;50.154;8.198;2023-03-01T07:32:30;31.87;;;12.53;;
20727;SDS011;10525;50.154;8.198;2023-03-01T07:34:57;26.43;;;11.40;;
20727;SDS011;10525;50.154;8.198;2023-03-01T07:37:24;34.17;;;10.43;;
20727;SDS011;10525;50.154;8.198;2023-03-01T07:39:50;22.80;;;10.90;;
20727;SDS011;10525;50.154;8.198;2023-03-01T07:42:17;22.23;;;10.63;;
20727;SDS011;10525;50.154;8.198;2023-03-01T07:44:44;23.93;;;11.73;;
20727;SDS011;10525;50.154;8.198;2023-03-01T07:47:10;26.87;;;11.87;;
20727;SDS011;10525;50.154;8.198;2023-03-01T07:49:38;25.07;;;10.20;;
20727;SDS011;10525;50.154;8.198;2023-03-01T07:52:05;28.00;;;11.83;;
20727;SDS011;10525;50.154;8.198;2023-03-01T07:54:31;26.33;;;12.40;;
20727;SDS011;10525;50.154;8.198;2023-03-01T07:56:58;21.90;;;11.63;;
20727;SDS011;10525;50.154;8.198;2023-03-01T07:59:25;30.10;;;12.27;;
20727;SDS011;10525;50.154;8.198;2023-03-01T08:01:54;27.10;;;10.90;;
20727;SDS011;10525;50.154;8.198;2023-03-01T08:04:21;26.17;;;11.33;;
20727;SDS011;10525;50.154;8.198;2023-03-01T08:06:51;29.07;;;11.10;;
20727;SDS011;10525;50.154;8.198;2023-03-01T08:09:17;26.50;;;11.17;;
20727;SDS011;10525;50.154;8.198;2023-03-01T08:11:44;32.90;;;12.17;;
20727;SDS011;10525;50.154;8.198;2023-03-01T08:14:11;23.73;;;11.00;;
20727;SDS011;10525;50.154;8.198;2023-03-01T08:16:37;24.70;;;11.33;;
20727;SDS011;10525;50.154;8.198;2023-03-01T08:19:04;24.80;;;11.60;;
20727;SDS011;10525;50.154;8.198;2023-03-01T08:21:31;27.47;;;12.00;;
20727;SDS011;10525;50.154;8.198;2023-03-01T08:24:01;22.63;;;10.63;;
20727;SDS011;10525;50.154;8.198;2023-03-01T08:26:27;26.40;;;10.83;;
20727;SDS011;10525;50.154;8.198;2023-03-01T08:28:54;25.83;;;12.13;;
20727;SDS011;10525;50.154;8.198;2023-03-01T08:31:22;26.97;;;10.70;;
20727;SDS011;10525;50.154;8.198;2023-03-01T08:33:50;25.93;;;11.43;;
20727;SDS011;10525;50.154;8.198;2023-03-01T08:36:20;24.90;;;10.73;;
20727;SDS011;10525;50.154;8.198;2023-03-01T08:38:47;22.77;;;10.93;;
20727;SDS011;10525;50.154;8.198;2023-03-01T08:41:15;24.13;;;10.13;;
20727;SDS011;10525;50.154;8.198;2023-03-01T08:43:42;25.40;;;11.20;;
20727;SDS011;10525;50.154;8.198;2023-03-01T08:46:09;20.87;;;9.70;;
20727;SDS011;10525;50.154;8.198;2023-03-01T08:48:35;22.93;;;10.90;;
20727;SDS011;10525;50.154;8.198;2023-03-01T08:51:09;24.23;;;10.87;;
20727;SDS011;10525;50.154;8.198;2023-03-01T08:53:37;27.10;;;11.23;;
20727;SDS011;10525;50.154;8.198;2023-03-01T08:56:04;22.10;;;10.57;;
20727;SDS011;10525;50.154;8.198;2023-03-01T08:58:32;25.37;;;11.20;;
20727;SDS011;10525;50.154;8.198;2023-03-01T09:00:59;20.53;;;9.57;;
20727;SDS011;10525;50.154;8.198;2023-03-01T09:03:26;21.17;;;10.83;;
20727;SDS011;10525;50.154;8.198;2023-03-01T09:05:53;21.87;;;10.17;;
20727;SDS011;10525;50.154;8.198;2023-03-01T09:08:26;19.27;;;10.23;;
20727;SDS011;10525;50.154;8.198;2023-03-01T09:10:53;22.77;;;10.73;;
20727;SDS011;10525;50.154;8.198;2023-03-01T09:13:20;21.27;;;11.17;;
20727;SDS011;10525;50.154;8.198;2023-03-01T09:15:50;23.93;;;11.40;;
20727;SDS011;10525;50.154;8.198;2023-03-01T09:18:16;26.87;;;10.20;;
20727;SDS011;10525;50.154;8.198;2023-03-01T09:20:43;32.07;;;10.97;;
20727;SDS011;10525;50.154;8.198;2023-03-01T09:23:10;18.77;;;9.87;;
20727;SDS011;10525;50.154;8.198;2023-03-01T09:25:36;25.00;;;10.03;;
20727;SDS011;10525;50.154;8.198;2023-03-01T09:28:03;22.73;;;10.50;;
20727;SDS011;10525;50.154;8.198;2023-03-01T09:30:30;31.77;;;11.63;;
20727;SDS011;10525;50.154;8.198;2023-03-01T09:32:58;28.50;;;11.27;;
20727;SDS011;10525;50.154;8.198;2023-03-01T09:35:25;23.50;;;10.43;;
20727;SDS011;10525;50.154;8.198;2023-03-01T09:37:51;17.57;;;8.90;;
20727;SDS011;10525;50.154;8.198;2023-03-01T09:40:19;18.70;;;9.67;;
20727;SDS011;10525;50.154;8.198;2023-03-01T09:42:48;21.23;;;10.67;;
20727;SDS011;10525;50.154;8.198;2023-03-01T09:45:21;21.33;;;9.33;;
20727;SDS011;10525;50.154;8.198;2023-03-01T09:47:53;25.37;;;10.13;;
20727;SDS011;10525;50.154;8.198;2023-03-01T09:50:22;20.43;;;9.20;;
20727;SDS011;10525;50.154;8.198;2023-03-01T09:52:54;16.37;;;7.87;;
20727;SDS011;10525;50.154;8.198;2023-03-01T09:55:26;21.63;;;10.33;;
20727;SDS011;10525;50.154;8.198;2023-03-01T09:57:58;21.97;;;10.97;;
20727;SDS011;10525;50.154;8.198;2023-03-01T10:00:32;26.87;;;10.63;;
20727;SDS011;10525;50.154;8.198;2023-03-01T10:03:08;24.80;;;10.27;;
20727;SDS011;10525;50.154;8.198;2023-03-01T10:05:46;24.13;;;10.60;;
20727;SDS011;10525;50.154;8.198;2023-03-01T10:08:26;20.80;;;9.90;;
20727;SDS011;10525;50.154;8.198;2023-03-01T10:10:56;25.50;;;11.47;;
20727;SDS011;10525;50.154;8.198;2023-03-01T10:13:25;21.47;;;10.43;;
20727;SDS011;10525;50.154;8.198;2023-03-01T10:16:00;21.53;;;10.17;;
20727;SDS011;10525;50.154;8.198;2023-03-01T10:18:31;21.57;;;10.70;;
20727;SDS011;10525;50.154;8.198;2023-03-01T10:21:07;25.53;;;11.27;;
20727;SDS011;10525;50.154;8.198;2023-03-01T10:23:39;23.13;;;10.80;;
20727;SDS011;10525;50.154;8.198;2023-03-01T10:26:12;21.30;;;9.73;;
20727;SDS011;10525;50.154;8.198;2023-03-01T10:28:50;24.30;;;10.55;;
20727;SDS011;10525;50.154;8.198;2023-03-01T10:31:27;21.87;;;9.73;;
20727;SDS011;10525;50.154;8.198;2023-03-01T10:34:04;26.35;;;9.80;;
20727;SDS011;10525;50.154;8.198;2023-03-01T10:36:37;19.23;;;9.20;;
20727;SDS011;10525;50.154;8.198;2023-03-01T10:39:10;26.43;;;10.23;;
20727;SDS011;10525;50.154;8.198;2023-03-01T10:41:40;22.42;;;11.52;;
20727;SDS011;10525;50.154;8.198;2023-03-01T10:44:34;30.00;;;10.38;;
20727;SDS011;10525;50.154;8.198;2023-03-01T10:47:08;21.60;;;10.98;;
20727;SDS011;10525;50.154;8.198;2023-03-01T10:49:43;22.60;;;10.07;;
20727;SDS011;10525;50.154;8.198;2023-03-01T10:52:24;23.43;;;11.10;;
20727;SDS011;10525;50.154;8.198;2023-03-01T10:54:54;26.47;;;10.40;;
20727;SDS011;10525;50.154;8.198;2023-03-01T10:57:30;19.15;;;10.57;;
20727;SDS011;10525;50.154;8.198;2023-03-01T11:00:15;23.42;;;10.85;;
20727;SDS011;10525;50.154;8.198;2023-03-01T11:02:47;24.13;;;8.40;;
20727;SDS011;10525;50.154;8.198;2023-03-01T11:05:18;21.98;;;9.75;;
20727;SDS011;10525;50.154;8.198;2023-03-01T11:07:50;23.07;;;9.73;;
20727;SDS011;10525;50.154;8.198;2023-03-01T11:10:19;25.27;;;10.40;;
20727;SDS011;10525;50.154;8.198;2023-03-01T11:12:47;24.50;;;10.35;;
20727;SDS011;10525;50.154;8.198;2023-03-01T11:15:20;20.27;;;9.45;;
20727;SDS011;10525;50.154;8.198;2023-03-01T11:17:49;23.48;;;9.40;;
20727;SDS011;10525;50.154;8.198;2023-03-01T11:20:18;17.00;;;9.30;;
20727;SDS011;10525;50.154;8.198;2023-03-01T11:22:53;19.70;;;9.80;;
20727;SDS011;10525;50.154;8.198;2023-03-01T11:25:23;25.95;;;10.35;;
20727;SDS011;10525;50.154;8.198;2023-03-01T11:27:52;20.17;;;9.00;;
20727;SDS011;10525;50.154;8.198;2023-03-01T11:30:21;17.23;;;9.48;;
20727;SDS011;10525;50.154;8.198;2023-03-01T11:32:53;17.42;;;9.73;;
20727;SDS011;10525;50.154;8.198;2023-03-01T11:35:28;16.17;;;8.98;;
20727;SDS011;10525;50.154;8.198;2023-03-01T11:38:02;20.42;;;9.57;;
20727;SDS011;10525;50.154;8.198;2023-03-01T11:40:37;16.05;;;8.30;;
20727;SDS011;10525;50.154;8.198;2023-03-01T11:43:09;18.08;;;9.07;;
20727;SDS011;10525;50.154;8.198;2023-03-01T11:45:43;15.93;;;9.30;;
20727;SDS011;10525;50.154;8.198;2023-03-01T11:48:27;14.57;;;8.55;;
20727;SDS011;10525;50.154;8.198;2023-03-01T11:51:05;24.73;;;9.90;;
20727;SDS011;10525;50.154;8.198;2023-03-01T11:53:47;19.67;;;8.63;;
20727;SDS011;10525;50.154;8.198;2023-03-01T11:56:25;16.55;;;8.73;;
20727;SDS011;10525;50.154;8.198;2023-03-01T11:59:24;14.02;;;8.02;;
20727;SDS011;10525;50.154;8.198;2023-03-01T12:02:16;12.82;;;8.00;;
20727;SDS011;10525;50.154;8.198;2023-03-01T12:04:58;19.23;;;8.07;;
20727;SDS011;10525;50.154;8.198;2023-03-01T12:07:42;15.90;;;8.45;;
20727;SDS011;10525;50.154;8.198;2023-03-01T12:10:21;15.02;;;7.60;;
20727;SDS011;10525;50.154;8.198;2023-03-01T12:12:58;12.23;;;6.80;;
20727;SDS011;10525;50.154;8.198;2023-03-01T12:15:39;12.63;;;7.93;;
20727;SDS011;10525;50.154;8.198;2023-03-01T12:21:03;14.25;;;7.88;;
20727;SDS011;10525;50.154;8.198;2023-03-01T12:23:46;11.25;;;7.05;;
20727;SDS011;10525;50.154;8.198;2023-03-01T12:26:27;12.35;;;6.68;;
20727;SDS011;10525;50.154;8.198;2023-03-01T12:31:49;14.57;;;7.30;;
20727;SDS011;10525;50.154;8.198;2023-03-01T12:34:40;17.13;;;7.68;;
20727;SDS011;10525;50.154;8.198;2023-03-01T12:37:21;15.45;;;7.25;;
20727;SDS011;10525;50.154;8.198;2023-03-01T12:39:59;13.63;;;7.95;;
20727;SDS011;10525;50.154;8.198;2023-03-01T12:42:44;11.40;;;7.15;;
20727;SDS011;10525;50.154;8.198;2023-03-01T12:45:44;13.20;;;8.20;;
20727;SDS011;10525;50.154;8.198;2023-03-01T12:48:23;15.25;;;7.20;;
20727;SDS011;10525;50.154;8.198;2023-03-01T12:50:57;14.68;;;7.53;;
20727;SDS011;10525;50.154;8.198;2023-03-01T12:53:28;12.98;;;7.35;;
20727;SDS011;10525;50.154;8.198;2023-03-01T12:55:58;14.23;;;6.97;;
20727;SDS011;10525;50.154;8.198;2023-03-01T12:58:29;14.00;;;7.10;;
20727;SDS011;10525;50.154;8.198;2023-03-01T13:01:09;8.93;;;6.15;;
20727;SDS011;10525;50.154;8.198;2023-03-01T13:03:53;13.15;;;6.47;;
20727;SDS011;10525;50.154;8.198;2023-03-01T13:06:40;13.43;;;6.60;;
20727;SDS011;10525;50.154;8.198;2023-03-01T13:09:14;7.22;;;5.93;;
20727;SDS011;10525;50.154;8.198;2023-03-01T13:11:49;15.10;;;6.65;;
20727;SDS011;10525;50.154;8.198;2023-03-01T13:17:04;11.35;;;6.50;;
20727;SDS011;10525;50.154;8.198;2023-03-01T13:19:55;10.75;;;6.45;;
20727;SDS011;10525;50.154;8.198;2023-03-01T13:22:27;12.98;;;6.38;;
20727;SDS011;10525;50.154;8.198;2023-03-01T13:25:10;14.43;;;5.75;;
20727;SDS011;10525;50.154;8.198;2023-03-01T13:27:40;14.15;;;6.57;;
20727;SDS011;10525;50.154;8.198;2023-03-01T13:30:38;12.63;;;6.80;;
20727;SDS011;10525;50.154;8.198;2023-03-01T13:33:33;11.25;;;6.38;;
20727;SDS011;10525;50.154;8.198;2023-03-01T13:36:06;20.85;;;7.72;;
20727;SDS011;10525;50.154;8.198;2023-03-01T13:38:36;15.27;;;7.47;;
20727;SDS011;10525;50.154;8.198;2023-03-01T13:41:04;10.45;;;6.50;;
20727;SDS011;10525;50.154;8.198;2023-03-01T13:43:32;10.70;;;7.15;;
20727;SDS011;10525;50.154;8.198;2023-03-01T13:46:07;8.25;;;5.90;;
20727;SDS011;10525;50.154;8.198;2023-03-01T13:48:36;9.23;;;5.93;;
20727;SDS011;10525;50.154;8.198;2023-03-01T13:51:04;12.48;;;6.93;;
20727;SDS011;10525;50.154;8.198;2023-03-01T13:53:35;13.65;;;6.55;;
20727;SDS011;10525;50.154;8.198;2023-03-01T13:56:06;12.57;;;7.25;;
20727;SDS011;10525;50.154;8.198;2023-03-01T13:58:43;11.93;;;6.53;;
20727;SDS011;10525;50.154;8.198;2023-03-01T14:01:21;10.32;;;6.25;;
20727;SDS011;10525;50.154;8.198;2023-03-01T14:03:53;10.13;;;6.05;;
20727;SDS011;10525;50.154;8.198;2023-03-01T14:06:21;11.10;;;7.15;;
20727;SDS011;10525;50.154;8.198;2023-03-01T14:08:50;11.15;;;6.07;;
20727;SDS011;10525;50.154;8.198;2023-03-01T14:11:35;10.82;;;6.38;;
20727;SDS011;10525;50.154;8.198;2023-03-01T14:14:24;8.82;;;5.93;;
20727;SDS011;10525;50.154;8.198;2023-03-01T14:17:05;10.20;;;6.38;;
20727;SDS011;10525;50.154;8.198;2023-03-01T14:19:40;8.13;;;5.47;;
20727;SDS011;10525;50.154;8.198;2023-03-01T14:22:12;18.98;;;7.18;;
20727;SDS011;10525;50.154;8.198;2023-03-01T14:24:46;13.63;;;7.18;;
20727;SDS011;10525;50.154;8.198;2023-03-01T14:27:15;9.40;;;6.95;;
20727;SDS011;10525;50.154;8.198;2023-03-01T14:29:42;11.02;;;6.80;;
20727;SDS011;10525;50.154;8.198;2023-03-01T14:32:17;10.48;;;6.30;;
20727;SDS011;10525;50.154;8.198;2023-03-01T14:34:45;9.32;;;5.68;;
20727;SDS011;10525;50.154;8.198;2023-03-01T14:37:18;12.60;;;6.07;;
20727;SDS011;10525;50.154;8.198;2023-03-01T14:39:47;10.27;;;5.65;;
20727;SDS011;10525;50.154;8.198;2023-03-01T14:42:14;14.25;;;6.93;;
20727;SDS011;10525;50.154;8.198;2023-03-01T14:44:42;11.23;;;6.70;;
20727;SDS011;10525;50.154;8.198;2023-03-01T14:47:11;9.75;;;4.88;;
20727;SDS011;10525;50.154;8.198;2023-03-01T14:49:41;8.57;;;5.70;;
20727;SDS011;10525;50.154;8.198;2023-03-01T14:52:17;7.22;;;5.97;;
20727;SDS011;10525;50.154;8.198;2023-03-01T14:54:46;14.60;;;7.63;;
20727;SDS011;10525;50.154;8.198;2023-03-01T14:57:16;9.82;;;6.30;;